Terminal Aerodrome Forecast
Issued by NWS

Home | Current Version | Previous Version | Graphics & Text | Print | Product List | Glossary On
Versions: 1 2 3 4 5 6 7 8 9 10 11 12 13 14 15 16 17 18 19 20 21 22 23 24 25 26 27
000
FTUS43 KMPX 291900 AAA
TAFAXN
TAF AMD
KAXN 291911Z 2919/3018 06010KT P6SM OVC015
     FM292200 08009KT P6SM BKN025
     FM300000 09007KT P6SM SCT020
     FM300900 11009KT 4SM BR BKN004 OVC012
     FM301500 12014KT P6SM SCT008 OVC015=

USA.gov is the U.S. government's official web portal to all federal, state and local government web resources and services.